createdAt,value
2019-05-19T00:01:04.701Z,3.73
2019-05-19T00:03:33.372Z,3.63
2019-05-19T00:06:02.051Z,3.53
2019-05-19T00:08:30.761Z,3.60
2019-05-19T00:10:59.421Z,4.10
2019-05-19T00:13:28.105Z,3.73
2019-05-19T00:15:56.786Z,3.93
2019-05-19T00:18:25.482Z,3.87
2019-05-19T00:20:54.142Z,3.97
2019-05-19T00:23:22.823Z,4.00
2019-05-19T00:25:51.495Z,3.77
2019-05-19T00:28:20.175Z,3.80
2019-05-19T00:30:48.858Z,4.03
2019-05-19T00:33:17.535Z,3.53
2019-05-19T00:35:46.193Z,3.70
2019-05-19T00:38:14.858Z,4.20
2019-05-19T00:40:43.534Z,4.00
2019-05-19T00:43:12.378Z,4.30
2019-05-19T00:45:41.180Z,3.60
2019-05-19T00:48:09.879Z,3.80
2019-05-19T00:50:38.550Z,4.07
2019-05-19T00:53:07.325Z,4.60
2019-05-19T00:55:36.435Z,3.97
2019-05-19T00:58:05.698Z,4.40
2019-05-19T01:00:34.473Z,4.20
2019-05-19T01:03:03.146Z,4.10
2019-05-19T01:05:31.886Z,3.97
2019-05-19T01:08:00.558Z,4.00
2019-05-19T01:10:29.235Z,4.37
2019-05-19T01:12:57.905Z,4.50
2019-05-19T01:15:26.586Z,3.93
2019-05-19T01:17:55.265Z,4.07
2019-05-19T01:20:24.544Z,4.13
2019-05-19T01:22:53.204Z,4.13
2019-05-19T01:25:21.883Z,4.20
2019-05-19T01:27:50.580Z,4.00
2019-05-19T01:30:20.941Z,3.83
2019-05-19T01:32:49.608Z,4.17
2019-05-19T01:35:18.269Z,4.73
2019-05-19T01:37:46.979Z,4.63
2019-05-19T01:40:15.757Z,4.20
2019-05-19T01:42:44.430Z,4.43
2019-05-19T01:45:13.509Z,3.97
2019-05-19T01:47:42.219Z,3.97
2019-05-19T01:50:18.940Z,3.77
2019-05-19T01:52:41.774Z,4.27
2019-05-19T01:55:10.737Z,4.30
2019-05-19T01:57:39.416Z,4.33
2019-05-19T02:00:09.398Z,4.33
2019-05-19T02:02:38.092Z,4.93
2019-05-19T02:05:07.362Z,4.40
2019-05-19T02:07:36.230Z,4.57
2019-05-19T02:10:07.822Z,3.60
2019-05-19T02:12:36.485Z,4.70
2019-05-19T02:15:06.944Z,3.80
2019-05-19T02:17:35.617Z,4.50
2019-05-19T02:20:06.306Z,4.07
2019-05-19T02:22:35.032Z,4.03
2019-05-19T02:25:03.902Z,3.90
2019-05-19T02:27:32.569Z,4.50
2019-05-19T02:30:01.330Z,4.30
2019-05-19T02:32:30.079Z,4.37
2019-05-19T02:34:58.744Z,4.03
2019-05-19T02:37:27.416Z,3.80
2019-05-19T02:39:56.089Z,4.00
2019-05-19T02:42:27.688Z,3.73
2019-05-19T02:45:02.185Z,3.40
2019-05-19T02:47:31.709Z,4.33
2019-05-19T02:50:02.656Z,4.07
2019-05-19T02:52:32.551Z,3.80
2019-05-19T02:55:03.013Z,4.23
2019-05-19T02:57:33.593Z,4.13
2019-05-19T03:00:03.406Z,4.27
2019-05-19T03:02:32.076Z,4.23
2019-05-19T03:05:00.811Z,3.93
2019-05-19T03:07:29.468Z,4.10
2019-05-19T03:09:59.168Z,4.37
2019-05-19T03:12:27.875Z,4.17
2019-05-19T03:14:56.553Z,4.37
2019-05-19T03:17:25.260Z,4.80
2019-05-19T03:19:53.921Z,4.80
2019-05-19T03:22:22.678Z,4.17
2019-05-19T03:24:51.329Z,4.37
2019-05-19T03:27:19.998Z,4.10
2019-05-19T03:29:52.991Z,4.10
2019-05-19T03:32:38.244Z,4.13
2019-05-19T03:35:06.921Z,4.23
2019-05-19T03:37:35.588Z,4.43
2019-05-19T03:40:07.150Z,3.80
2019-05-19T03:42:35.838Z,4.43
2019-05-19T03:45:04.818Z,3.70
2019-05-19T03:47:33.483Z,3.43
2019-05-19T03:50:02.173Z,3.93
2019-05-19T03:52:30.869Z,4.10
2019-05-19T03:54:59.561Z,3.87
2019-05-19T03:57:28.215Z,3.67
2019-05-19T03:59:56.908Z,3.53
2019-05-19T04:02:25.587Z,3.17
2019-05-19T04:04:54.273Z,3.57
2019-05-19T04:07:22.955Z,3.03
2019-05-19T04:09:57.653Z,3.70
2019-05-19T04:12:27.369Z,4.10
2019-05-19T04:14:56.051Z,3.37
2019-05-19T04:17:26.017Z,3.10
2019-05-19T04:19:57.773Z,4.00
2019-05-19T04:22:26.449Z,3.73
2019-05-19T04:24:55.141Z,3.37
2019-05-19T04:27:23.842Z,3.63
2019-05-19T04:29:52.620Z,3.33
2019-05-19T04:32:21.320Z,3.47
2019-05-19T04:34:52.101Z,3.90
2019-05-19T04:37:23.935Z,3.90
2019-05-19T04:39:53.841Z,3.53
2019-05-19T04:42:22.508Z,3.57
2019-05-19T04:44:51.180Z,3.20
2019-05-19T04:47:19.837Z,3.27
2019-05-19T04:49:48.509Z,3.77
2019-05-19T04:52:17.174Z,3.90
2019-05-19T04:54:45.868Z,4.00
2019-05-19T04:57:14.532Z,4.13
2019-05-19T04:59:45.740Z,4.20
2019-05-19T05:02:19.619Z,4.03
2019-05-19T05:04:49.954Z,3.60
2019-05-19T05:07:18.646Z,4.00
2019-05-19T05:09:48.460Z,3.87
2019-05-19T05:12:17.152Z,3.60
2019-05-19T05:14:46.231Z,4.17
2019-05-19T05:17:14.934Z,3.80
2019-05-19T05:19:43.597Z,3.50
2019-05-19T05:22:21.781Z,4.13
2019-05-19T05:24:42.928Z,3.27
2019-05-19T05:27:13.603Z,3.60
2019-05-19T05:29:43.567Z,3.80
2019-05-19T05:32:12.289Z,3.47
2019-05-19T05:34:41.012Z,3.90
2019-05-19T05:37:09.694Z,3.93
2019-05-19T05:39:38.414Z,3.83
2019-05-19T05:42:07.086Z,3.53
2019-05-19T05:44:35.765Z,3.60
2019-05-19T05:47:04.421Z,3.90
2019-05-19T05:49:33.109Z,3.97
2019-05-19T05:52:03.282Z,3.50
2019-05-19T05:54:33.127Z,3.63
2019-05-19T05:57:04.493Z,4.27
2019-05-19T05:59:33.012Z,3.57
2019-05-19T06:02:01.702Z,3.63
2019-05-19T06:04:30.375Z,3.80
2019-05-19T06:06:59.044Z,4.57
2019-05-19T06:09:29.054Z,4.10
2019-05-19T06:11:58.279Z,3.77
2019-05-19T06:14:27.452Z,4.30
2019-05-19T06:16:56.188Z,3.50
2019-05-19T06:19:26.202Z,4.03
2019-05-19T06:21:58.449Z,3.23
2019-05-19T06:24:35.027Z,3.97
2019-05-19T06:27:07.932Z,4.00
2019-05-19T06:29:45.603Z,3.77
2019-05-19T06:32:36.489Z,4.23
2019-05-19T06:38:31.521Z,4.10
2019-05-19T06:41:03.771Z,4.20
2019-05-19T06:43:35.629Z,4.20
2019-05-19T06:46:04.292Z,3.93
2019-05-19T06:48:32.988Z,4.20
2019-05-19T06:51:01.934Z,4.07
2019-05-19T06:53:32.127Z,4.43
2019-05-19T06:56:01.191Z,3.83
2019-05-19T06:58:29.865Z,4.33
2019-05-19T07:01:00.660Z,4.20
2019-05-19T07:03:30.344Z,4.20
2019-05-19T07:05:59.088Z,4.75
2019-05-19T07:08:30.506Z,4.57
2019-05-19T07:11:05.259Z,4.43
2019-05-19T07:13:37.902Z,5.47
2019-05-19T07:16:06.689Z,4.53
2019-05-19T07:18:38.376Z,3.77
2019-05-19T07:21:07.089Z,4.40
2019-05-19T07:23:37.329Z,4.50
2019-05-19T07:26:05.978Z,4.90
2019-05-19T07:28:34.663Z,4.13
2019-05-19T07:31:05.588Z,4.78
2019-05-19T07:33:34.253Z,4.28
2019-05-19T07:36:02.913Z,4.33
2019-05-19T07:38:31.638Z,4.37
2019-05-19T07:41:00.363Z,4.58
2019-05-19T07:43:29.032Z,4.40
2019-05-19T07:45:57.707Z,4.72
2019-05-19T07:48:26.380Z,4.40
2019-05-19T07:50:55.054Z,4.62
2019-05-19T07:53:24.562Z,4.50
2019-05-19T07:55:53.255Z,4.60
2019-05-19T07:58:22.098Z,4.78
2019-05-19T08:00:55.748Z,4.65
2019-05-19T08:03:24.430Z,4.78
2019-05-19T08:05:57.132Z,6.00
2019-05-19T08:08:25.950Z,4.75
2019-05-19T08:10:54.644Z,5.20
2019-05-19T08:13:23.316Z,4.78
2019-05-19T08:15:52.004Z,5.50
2019-05-19T08:18:20.706Z,5.20
2019-05-19T08:20:49.370Z,5.50
2019-05-19T08:23:18.062Z,5.17
2019-05-19T08:25:46.744Z,5.12
2019-05-19T08:28:15.434Z,5.70
2019-05-19T08:30:44.119Z,5.12
2019-05-19T08:33:12.868Z,5.30
2019-05-19T08:35:41.579Z,5.78
2019-05-19T08:38:10.265Z,5.70
2019-05-19T08:40:38.933Z,5.47
2019-05-19T08:43:09.215Z,5.10
2019-05-19T08:45:37.936Z,5.85
2019-05-19T08:48:06.610Z,5.53
2019-05-19T08:50:35.306Z,5.47
2019-05-19T08:53:04.121Z,5.30
2019-05-19T08:55:32.873Z,5.87
2019-05-19T08:58:01.630Z,5.45
2019-05-19T09:00:30.378Z,5.58
2019-05-19T09:02:59.097Z,6.58
2019-05-19T09:05:27.760Z,5.28
2019-05-19T09:07:56.416Z,5.60
2019-05-19T09:10:25.095Z,4.83
2019-05-19T09:12:53.775Z,4.72
2019-05-19T09:15:22.455Z,4.33
2019-05-19T09:17:54.092Z,4.08
2019-05-19T09:20:21.544Z,3.45
2019-05-19T09:22:50.205Z,4.70
2019-05-19T09:25:18.878Z,4.00
2019-05-19T09:27:47.578Z,4.37
2019-05-19T09:30:16.635Z,3.70
2019-05-19T09:32:45.323Z,3.50
2019-05-19T09:35:15.236Z,3.62
2019-05-19T09:37:43.886Z,3.40
2019-05-19T09:40:13.777Z,3.30
2019-05-19T09:42:42.458Z,2.98
2019-05-19T09:45:13.058Z,3.20
2019-05-19T09:47:42.253Z,3.25
2019-05-19T09:50:11.310Z,2.95
2019-05-19T09:52:39.996Z,2.30
2019-05-19T09:55:09.686Z,2.67
2019-05-19T09:57:38.358Z,2.33
2019-05-19T10:00:08.834Z,2.85
2019-05-19T10:02:37.512Z,2.08
2019-05-19T10:05:07.770Z,2.50
2019-05-19T10:07:36.433Z,2.55
2019-05-19T10:10:16.194Z,2.50
2019-05-19T10:12:44.883Z,2.30
2019-05-19T10:15:14.378Z,2.30
2019-05-19T10:17:43.073Z,2.08
2019-05-19T10:20:12.843Z,2.52
2019-05-19T10:22:41.465Z,2.67
2019-05-19T10:25:21.802Z,2.22
2019-05-19T10:27:41.139Z,2.33
2019-05-19T10:30:10.715Z,2.27
2019-05-19T10:32:39.391Z,2.50
2019-05-19T10:35:08.583Z,2.40
2019-05-19T10:37:37.288Z,2.58
2019-05-19T10:40:07.114Z,2.25
2019-05-19T10:42:36.010Z,2.37
2019-05-19T10:45:10.142Z,2.17
2019-05-19T10:47:38.798Z,2.40
2019-05-19T10:50:08.112Z,2.45
2019-05-19T10:52:36.793Z,2.05
2019-05-19T10:55:07.465Z,3.05
2019-05-19T10:57:36.137Z,2.22
2019-05-19T11:00:06.513Z,2.17
2019-05-19T11:02:35.189Z,2.10
2019-05-19T11:05:04.974Z,2.35
2019-05-19T11:07:33.658Z,1.82
2019-05-19T11:10:02.338Z,2.15
2019-05-19T11:12:31.020Z,2.12
2019-05-19T11:14:59.699Z,1.90
2019-05-19T11:17:28.383Z,2.10
2019-05-19T11:19:57.072Z,2.05
2019-05-19T11:22:25.738Z,2.12
2019-05-19T11:24:54.404Z,2.47
2019-05-19T11:27:23.086Z,2.00
2019-05-19T11:29:51.778Z,2.02
2019-05-19T11:32:20.476Z,1.98
2019-05-19T11:34:49.200Z,1.92
2019-05-19T11:37:17.885Z,1.87
2019-05-19T11:39:46.560Z,2.42
2019-05-19T11:42:15.227Z,2.02
2019-05-19T11:44:43.913Z,2.10
2019-05-19T11:47:12.624Z,2.08
2019-05-19T11:49:41.363Z,2.60
2019-05-19T11:52:10.019Z,2.77
2019-05-19T11:54:38.797Z,2.12
2019-05-19T11:57:07.498Z,2.77
2019-05-19T11:59:36.174Z,2.12
2019-05-19T12:02:04.966Z,2.20
2019-05-19T12:04:33.683Z,2.30
2019-05-19T12:07:02.362Z,2.12
2019-05-19T12:09:31.047Z,2.00
2019-05-19T12:11:59.821Z,2.42
2019-05-19T12:14:31.472Z,2.42
2019-05-19T12:17:01.492Z,2.60
2019-05-19T12:19:30.256Z,2.35
2019-05-19T12:21:58.981Z,2.10
2019-05-19T12:24:27.686Z,2.67
2019-05-19T12:26:56.378Z,2.35
2019-05-19T12:29:25.089Z,2.00
2019-05-19T12:31:53.776Z,2.33
2019-05-19T12:34:22.495Z,2.20
2019-05-19T12:36:51.215Z,2.37
2019-05-19T12:39:19.925Z,2.30
2019-05-19T12:41:48.690Z,2.50
2019-05-19T12:44:17.399Z,2.50
2019-05-19T12:46:46.069Z,2.42
2019-05-19T12:49:17.510Z,2.00
2019-05-19T12:51:46.181Z,2.33
2019-05-19T12:54:14.909Z,2.27
2019-05-19T12:56:43.573Z,2.62
2019-05-19T12:59:13.165Z,2.70
2019-05-19T13:01:41.848Z,2.65
2019-05-19T13:04:10.540Z,2.30
2019-05-19T13:06:39.270Z,2.67
2019-05-19T13:09:08.351Z,2.77
2019-05-19T13:11:37.047Z,2.80
2019-05-19T13:14:05.712Z,2.65
2019-05-19T13:16:34.401Z,3.08
2019-05-19T13:19:04.736Z,2.50
2019-05-19T13:21:33.756Z,2.92
2019-05-19T13:24:02.449Z,3.02
2019-05-19T13:26:31.153Z,3.00
2019-05-19T13:28:59.822Z,2.92
2019-05-19T13:31:28.512Z,2.67
2019-05-19T13:33:57.198Z,2.40
2019-05-19T13:36:25.920Z,2.62
2019-05-19T13:38:54.572Z,3.08
2019-05-19T13:41:24.792Z,2.90
2019-05-19T13:43:53.468Z,2.60
2019-05-19T13:46:22.136Z,3.00
2019-05-19T13:48:50.806Z,2.83
2019-05-19T13:51:19.512Z,2.98
2019-05-19T13:53:48.181Z,2.75
2019-05-19T13:56:16.886Z,2.72
2019-05-19T13:58:45.539Z,2.58
2019-05-19T14:01:27.669Z,2.75
2019-05-19T14:03:44.672Z,3.10
2019-05-19T14:06:13.344Z,2.92
2019-05-19T14:08:42.015Z,2.65
2019-05-19T14:11:10.703Z,3.00
2019-05-19T14:13:39.465Z,3.17
2019-05-19T14:16:08.143Z,2.83
2019-05-19T14:18:36.898Z,2.87
2019-05-19T14:21:05.595Z,3.20
2019-05-19T14:23:34.351Z,2.65
2019-05-19T14:26:03.048Z,3.45
2019-05-19T14:28:31.738Z,3.00
2019-05-19T14:31:00.529Z,2.90
2019-05-19T14:33:29.196Z,3.00
2019-05-19T14:35:57.896Z,3.02
2019-05-19T14:38:26.580Z,2.95
2019-05-19T14:40:55.271Z,2.67
2019-05-19T14:43:25.526Z,3.40
2019-05-19T14:45:54.222Z,2.92
2019-05-19T14:48:22.921Z,3.22
2019-05-19T14:50:51.588Z,3.60
2019-05-19T14:53:20.268Z,4.05
2019-05-19T14:55:48.949Z,3.22
2019-05-19T14:58:17.627Z,3.40
2019-05-19T15:00:47.821Z,3.30
2019-05-19T15:03:16.508Z,3.15
2019-05-19T15:05:46.466Z,3.45
2019-05-19T15:08:15.161Z,3.05
2019-05-19T15:10:43.825Z,3.50
2019-05-19T15:13:13.714Z,3.55
2019-05-19T15:15:42.379Z,3.40
2019-05-19T15:18:12.527Z,3.70
2019-05-19T15:20:41.226Z,3.60
2019-05-19T15:23:09.891Z,3.65
2019-05-19T15:25:38.620Z,3.37
2019-05-19T15:28:07.300Z,3.37
2019-05-19T15:30:36.035Z,3.40
2019-05-19T15:33:04.689Z,4.78
2019-05-19T15:35:33.376Z,4.20
2019-05-19T15:38:02.070Z,3.70
2019-05-19T15:40:30.756Z,3.87
2019-05-19T15:42:59.449Z,3.12
2019-05-19T15:45:28.137Z,3.15
2019-05-19T15:47:56.827Z,3.67
2019-05-19T15:50:25.518Z,3.50
2019-05-19T15:52:54.184Z,3.05
2019-05-19T15:55:22.901Z,3.20
2019-05-19T15:57:51.575Z,3.25
2019-05-19T16:00:22.425Z,3.08
2019-05-19T16:02:51.203Z,2.67
2019-05-19T16:05:19.875Z,2.87
2019-05-19T16:07:48.561Z,3.20
2019-05-19T16:10:17.724Z,2.87
2019-05-19T16:12:46.401Z,2.85
2019-05-19T16:15:15.455Z,3.15
2019-05-19T16:17:44.159Z,2.90
2019-05-19T16:20:13.476Z,3.02
2019-05-19T16:22:42.142Z,3.20
2019-05-19T16:25:11.427Z,3.08
2019-05-19T16:27:40.199Z,2.52
2019-05-19T16:30:09.581Z,3.10
2019-05-19T16:32:38.242Z,2.83
2019-05-19T16:35:08.167Z,3.22
2019-05-19T16:37:36.835Z,2.55
2019-05-19T16:40:07.023Z,2.50
2019-05-19T16:42:35.707Z,3.25
2019-05-19T16:45:06.784Z,3.08
2019-05-19T16:47:35.470Z,2.67
2019-05-19T16:50:05.899Z,3.33
2019-05-19T16:52:34.613Z,2.70
2019-05-19T16:55:07.809Z,3.27
2019-05-19T16:57:39.756Z,2.42
2019-05-19T17:00:08.806Z,2.40
2019-05-19T17:02:37.529Z,2.63
2019-05-19T17:05:07.332Z,2.87
2019-05-19T17:07:36.019Z,2.90
2019-05-19T17:10:09.413Z,3.07
2019-05-19T17:12:39.627Z,2.70
2019-05-19T17:15:09.197Z,3.00
2019-05-19T17:17:37.931Z,3.17
2019-05-19T17:20:08.726Z,2.70
2019-05-19T17:22:37.401Z,3.07
2019-05-19T17:25:07.610Z,2.67
2019-05-19T17:27:36.285Z,2.47
2019-05-19T17:30:07.831Z,3.00
2019-05-19T17:32:36.519Z,2.97
2019-05-19T17:35:07.452Z,2.90
2019-05-19T17:37:36.226Z,2.97
2019-05-19T17:40:08.042Z,2.57
2019-05-19T17:42:37.432Z,2.63
2019-05-19T17:45:07.795Z,3.00
2019-05-19T17:47:36.566Z,2.50
2019-05-19T17:50:06.427Z,3.20
2019-05-19T17:52:35.202Z,3.77
2019-05-19T17:55:04.985Z,2.93
2019-05-19T17:57:34.472Z,2.90
2019-05-19T18:00:03.931Z,2.50
2019-05-19T18:02:32.599Z,2.70
2019-05-19T18:05:01.290Z,2.90
2019-05-19T18:07:31.175Z,2.70
2019-05-19T18:09:59.851Z,3.20
2019-05-19T18:12:28.521Z,3.30
2019-05-19T18:14:57.224Z,3.73
2019-05-19T18:17:25.900Z,3.43
2019-05-19T18:19:54.622Z,3.33
2019-05-19T18:22:23.311Z,3.20
2019-05-19T18:24:51.987Z,3.83
2019-05-19T18:27:20.678Z,3.23
2019-05-19T18:29:49.408Z,3.40
2019-05-19T18:32:18.066Z,3.47
2019-05-19T18:34:46.745Z,3.60
2019-05-19T18:37:15.422Z,4.47
2019-05-19T18:39:44.105Z,5.17
2019-05-19T18:42:12.789Z,3.90
2019-05-19T18:44:41.477Z,5.77
2019-05-19T18:47:10.193Z,4.23
2019-05-19T18:49:39.202Z,4.80
2019-05-19T18:52:07.883Z,3.93
2019-05-19T18:54:38.006Z,3.70
2019-05-19T18:57:06.682Z,3.40
2019-05-19T18:59:46.886Z,2.93
2019-05-19T19:02:06.799Z,3.27
2019-05-19T19:04:35.468Z,4.50
2019-05-19T19:07:04.152Z,3.50
2019-05-19T19:09:32.812Z,3.03
2019-05-19T19:12:01.517Z,3.50
2019-05-19T19:14:31.039Z,3.40
2019-05-19T19:16:59.726Z,4.30
2019-05-19T19:19:28.410Z,3.20
2019-05-19T19:21:57.081Z,2.80
2019-05-19T19:24:25.759Z,2.93
2019-05-19T19:26:54.446Z,2.70
2019-05-19T19:29:23.108Z,3.40
2019-05-19T19:31:51.803Z,3.87
2019-05-19T19:34:20.472Z,3.60
2019-05-19T19:36:49.136Z,3.53
2019-05-19T19:39:17.802Z,3.50
2019-05-19T19:41:46.470Z,3.23
2019-05-19T19:44:15.157Z,3.10
2019-05-19T19:46:43.824Z,3.30
2019-05-19T19:49:12.520Z,3.27
2019-05-19T19:51:41.192Z,3.43
2019-05-19T19:54:09.879Z,3.60
2019-05-19T19:56:38.565Z,3.80
2019-05-19T19:59:07.252Z,3.43
2019-05-19T20:01:35.980Z,3.73
2019-05-19T20:04:04.677Z,3.57
2019-05-19T20:06:33.366Z,3.80
2019-05-19T20:45:58.622Z,3.73
2019-05-19T20:48:27.311Z,4.67
2019-05-19T20:50:55.965Z,4.37
2019-05-19T20:53:24.661Z,3.77
2019-05-19T20:55:53.368Z,4.00
2019-05-19T20:58:22.058Z,4.37
2019-05-19T21:00:51.913Z,3.97
2019-05-19T21:03:20.801Z,4.37
2019-05-19T21:05:49.463Z,4.43
2019-05-19T21:08:18.143Z,4.63
2019-05-19T21:10:46.806Z,4.50
2019-05-19T21:13:15.497Z,4.60
2019-05-19T21:15:44.174Z,4.37
2019-05-19T21:18:12.833Z,4.80
2019-05-19T21:20:41.496Z,4.73
2019-05-19T21:23:10.517Z,4.93
2019-05-19T21:25:42.195Z,4.63
2019-05-19T21:28:10.892Z,4.20
2019-05-19T21:30:39.585Z,3.93
2019-05-19T21:33:08.249Z,4.00
2019-05-19T21:35:36.931Z,3.90
2019-05-19T21:38:05.623Z,3.47
2019-05-19T21:40:34.316Z,3.60
2019-05-19T21:43:02.992Z,4.17
2019-05-19T21:45:31.676Z,4.33
2019-05-19T21:48:00.381Z,3.80
2019-05-19T21:50:29.150Z,4.03
2019-05-19T21:52:57.843Z,4.10
2019-05-19T21:55:26.588Z,4.23
2019-05-19T21:57:55.266Z,4.33
2019-05-19T22:00:25.705Z,3.73
2019-05-19T22:02:54.384Z,3.90
2019-05-19T22:05:23.162Z,3.97
2019-05-19T22:08:06.219Z,4.17
2019-05-19T22:10:35.012Z,4.00
2019-05-19T22:13:03.773Z,3.43
2019-05-19T22:15:32.440Z,4.10
2019-05-19T22:18:01.148Z,4.33
2019-05-19T22:20:29.826Z,3.90
2019-05-19T22:22:58.484Z,3.80
2019-05-19T22:25:27.168Z,3.80
2019-05-19T22:27:55.837Z,3.53
2019-05-19T22:30:25.418Z,3.60
2019-05-19T22:32:54.095Z,5.50
2019-05-19T22:35:22.788Z,3.93
2019-05-19T22:37:51.470Z,4.03
2019-05-19T22:40:20.155Z,4.33
2019-05-19T22:42:48.817Z,3.30
2019-05-19T22:45:18.194Z,4.07
2019-05-19T22:47:46.876Z,3.93
2019-05-19T22:50:15.808Z,4.03
2019-05-19T22:52:44.491Z,4.77
2019-05-19T22:55:13.372Z,4.60
2019-05-19T22:57:42.042Z,4.30
2019-05-19T23:00:13.029Z,3.87
2019-05-19T23:02:41.725Z,4.40
2019-05-19T23:05:10.627Z,2.50
2019-05-19T23:07:40.937Z,3.20
2019-05-19T23:10:10.080Z,3.10
2019-05-19T23:12:38.837Z,3.00
2019-05-19T23:15:08.309Z,2.60
2019-05-19T23:17:36.972Z,2.80
2019-05-19T23:20:06.452Z,1.90
2019-05-19T23:22:35.143Z,2.07
2019-05-19T23:25:05.006Z,2.23
2019-05-19T23:27:33.793Z,1.70
2019-05-19T23:30:02.495Z,2.17
2019-05-19T23:32:31.172Z,1.90
2019-05-19T23:34:59.837Z,1.50
2019-05-19T23:37:28.524Z,2.03
2019-05-19T23:39:57.186Z,1.77
2019-05-19T23:42:25.974Z,1.80
2019-05-19T23:44:54.635Z,1.77
2019-05-19T23:47:23.303Z,2.07
2019-05-19T23:49:51.977Z,2.30
2019-05-19T23:52:20.651Z,2.10
2019-05-19T23:54:49.324Z,1.90
2019-05-19T23:57:18.090Z,1.80
2019-05-19T23:59:46.777Z,2.13
